Time;durP1;ratioP1;P1;durP2;ratioP2;P2;SDS_P1;SDS_P2;PMS_P1;PMS_P2;Temp;Humidity;BMP_temperature;BMP_pressure;BME280_temperature;BME280_humidity;BME280_pressure;Samples;Min_cycle;Max_cycle;Signal;HPM_P1;HPM_P2
2022/06/07 00:02:11;;;;;;;;;;;27.90;94.40;;;;;;5085193;28;19908;-56
2022/06/07 00:04:38;;;;;;;;;;;27.90;94.30;;;;;;5084859;28;19900;-56
2022/06/07 00:07:05;;;;;;;;;;;28.00;94.30;;;;;;5085246;28;19915;-56
2022/06/07 00:09:31;;;;;;;;;;;28.00;94.20;;;;;;5082599;28;19911;-55
2022/06/07 00:11:58;;;;;;;;;;;28.00;94.20;;;;;;5084064;28;19904;-57
2022/06/07 00:14:24;;;;;;;;;;;28.00;94.20;;;;;;5084181;28;19904;-58
2022/06/07 00:16:51;;;;;;;;;;;28.00;94.20;;;;;;5085515;28;19914;-58
2022/06/07 00:19:17;;;;;;;;;;;28.00;94.20;;;;;;5084268;28;19911;-58
2022/06/07 00:21:43;;;;;;;;;;;28.00;94.20;;;;;;5084449;28;19919;-55
2022/06/07 00:24:10;;;;;;;;;;;28.00;94.20;;;;;;5084259;28;19936;-58
2022/06/07 00:26:38;;;;;;;;;;;28.00;94.20;;;;;;5084198;28;19908;-59
2022/06/07 00:29:07;;;;;;;;;;;28.00;94.30;;;;;;5084611;28;20220;-60
2022/06/07 00:31:36;;;;;;;;;;;28.00;94.20;;;;;;5084611;28;19909;-57
2022/06/07 00:34:06;;;;;;;;;;;28.00;94.20;;;;;;5084065;28;19904;-58
2022/06/07 00:36:33;;;;;;;;;;;28.00;94.20;;;;;;5084267;28;19920;-57
2022/06/07 00:38:59;;;;;;;;;;;27.90;94.20;;;;;;5084415;28;19911;-57
2022/06/07 00:41:26;;;;;;;;;;;27.90;94.20;;;;;;5076267;28;19950;-57
2022/06/07 00:44:10;;;;;;;;;;;27.90;94.20;;;;;;5084803;28;19946;-57
2022/06/07 00:46:37;;;;;;;;;;;27.90;94.20;;;;;;5084435;28;19905;-53
2022/06/07 00:49:03;;;;;;;;;;;27.90;94.30;;;;;;5084446;28;19940;-58
2022/06/07 00:51:29;;;;;;;;;;;27.90;94.30;;;;;;5084442;28;19931;-58
2022/06/07 00:53:55;;;;;;;;;;;27.90;94.20;;;;;;5083999;28;19911;-60
2022/06/07 00:56:21;;;;;;;;;;;27.90;94.10;;;;;;5084162;28;19908;-57
2022/06/07 00:58:48;;;;;;;;;;;27.80;94.00;;;;;;5084423;28;19911;-58
2022/06/07 01:01:14;;;;;;;;;;;27.90;94.10;;;;;;5084236;28;19911;-58
2022/06/07 01:03:40;;;;;;;;;;;27.80;94.10;;;;;;5084182;28;19957;-57
2022/06/07 01:11:35;;;;;;;;;;;27.80;94.10;;;;;;5084603;28;19926;-61
2022/06/07 01:14:01;;;;;;;;;;;27.80;94.00;;;;;;5083450;28;25123;-57
2022/06/07 01:16:27;;;;;;;;;;;27.80;94.10;;;;;;5083976;28;24058;-58
2022/06/07 01:18:53;;;;;;;;;;;27.80;94.10;;;;;;5083865;28;19904;-58
2022/06/07 01:21:22;;;;;;;;;;;27.80;94.00;;;;;;5088617;28;19949;-56
2022/06/07 01:23:48;;;;;;;;;;;27.80;94.10;;;;;;5089209;28;19912;-57
2022/06/07 01:26:15;;;;;;;;;;;27.60;94.30;;;;;;5090753;28;19905;-58
2022/06/07 01:28:41;;;;;;;;;;;27.50;94.50;;;;;;5094514;28;19914;-56
2022/06/07 01:31:07;;;;;;;;;;;27.40;94.70;;;;;;5101355;28;20076;-55
2022/06/07 01:33:33;;;;;;;;;;;27.30;94.80;;;;;;5094030;28;19912;-59
2022/06/07 01:36:04;;;;;;;;;;;27.30;94.90;;;;;;5093109;28;20101;-55
2022/06/07 01:38:32;;;;;;;;;;;27.30;95.00;;;;;;5075501;28;20242;-56
2022/06/07 01:43:43;;;;;;;;;;;27.30;95.00;;;;;;5096776;28;20100;-55
2022/06/07 01:46:09;;;;;;;;;;;27.30;95.10;;;;;;5100518;28;19919;-56
2022/06/07 01:48:35;;;;;;;;;;;27.20;95.20;;;;;;5089573;28;19908;-59
2022/06/07 01:51:02;;;;;;;;;;;27.10;95.30;;;;;;5099539;28;19919;-60
2022/06/07 01:53:28;;;;;;;;;;;27.10;95.30;;;;;;5106192;28;19904;-58
2022/06/07 01:56:00;;;;;;;;;;;27.00;95.30;;;;;;5106262;28;19908;-57
2022/06/07 01:58:26;;;;;;;;;;;27.00;95.50;;;;;;5104061;28;19912;-57
2022/06/07 02:00:53;;;;;;;;;;;27.10;95.50;;;;;;5101889;28;24070;-56
2022/06/07 02:03:19;;;;;;;;;;;27.10;95.50;;;;;;5095163;28;19954;-56
2022/06/07 02:05:56;;;;;;;;;;;27.10;95.40;;;;;;5080474;28;19904;-56
2022/06/07 02:08:22;;;;;;;;;;;27.00;95.50;;;;;;5095029;28;19953;-56
2022/06/07 02:10:48;;;;;;;;;;;27.00;95.50;;;;;;5099893;28;19950;-59
2022/06/07 02:13:14;;;;;;;;;;;27.00;95.40;;;;;;5105009;28;19911;-56
2022/06/07 02:15:41;;;;;;;;;;;26.90;95.60;;;;;;5105035;28;24104;-55
2022/06/07 02:18:07;;;;;;;;;;;26.90;95.50;;;;;;5095785;28;19916;-59
2022/06/07 02:20:33;;;;;;;;;;;27.00;95.50;;;;;;5100687;28;19904;-57
2022/06/07 02:22:59;;;;;;;;;;;26.90;95.40;;;;;;5093755;28;19939;-58
2022/06/07 02:25:26;;;;;;;;;;;27.00;95.40;;;;;;5092211;28;19911;-56
2022/06/07 02:27:52;;;;;;;;;;;26.90;95.30;;;;;;5091667;28;19936;-57
2022/06/07 02:30:19;;;;;;;;;;;26.90;95.30;;;;;;5099899;28;19904;-55
2022/06/07 02:32:45;;;;;;;;;;;26.90;95.40;;;;;;5097918;28;20099;-55
2022/06/07 02:35:11;;;;;;;;;;;26.90;95.30;;;;;;5093224;28;24090;-57
2022/06/07 02:37:38;;;;;;;;;;;26.90;95.40;;;;;;5095431;28;19904;-55
2022/06/07 02:40:05;;;;;;;;;;;26.90;95.30;;;;;;5100704;28;19904;-62
2022/06/07 02:42:32;;;;;;;;;;;27.00;95.20;;;;;;5084608;28;19916;-56
2022/06/07 02:44:59;;;;;;;;;;;27.00;95.30;;;;;;5090566;28;19904;-56
2022/06/07 02:47:25;;;;;;;;;;;27.00;95.20;;;;;;5096343;28;19940;-56
2022/06/07 02:49:52;;;;;;;;;;;27.10;95.10;;;;;;5105468;28;19900;-56
2022/06/07 02:52:18;;;;;;;;;;;27.10;95.00;;;;;;5105993;28;19913;-57
2022/06/07 02:54:44;;;;;;;;;;;27.10;94.90;;;;;;5102246;28;19972;-56
2022/06/07 02:57:11;;;;;;;;;;;27.20;94.90;;;;;;5094717;28;19953;-56
2022/06/07 02:59:37;;;;;;;;;;;27.20;94.80;;;;;;5097713;28;19939;-55
2022/06/07 03:02:03;;;;;;;;;;;27.20;94.80;;;;;;5102416;28;20210;-56
2022/06/07 03:04:29;;;;;;;;;;;27.20;94.70;;;;;;5101609;28;20050;-50
2022/06/07 03:06:55;;;;;;;;;;;27.20;94.70;;;;;;5094730;28;20177;-55
2022/06/07 03:09:22;;;;;;;;;;;27.20;94.70;;;;;;5092521;28;20243;-57
2022/06/07 03:11:48;;;;;;;;;;;27.20;94.60;;;;;;5079995;28;19905;-55
2022/06/07 03:14:14;;;;;;;;;;;27.20;94.60;;;;;;5101482;28;19915;-56
2022/06/07 03:16:40;;;;;;;;;;;27.20;94.50;;;;;;5105464;28;19965;-56
2022/06/07 03:19:06;;;;;;;;;;;27.20;94.50;;;;;;5091201;28;19912;-56
2022/06/07 03:21:32;;;;;;;;;;;27.20;94.40;;;;;;5083982;28;19916;-56
2022/06/07 03:23:58;;;;;;;;;;;27.20;94.50;;;;;;5095985;28;20193;-56
2022/06/07 03:26:25;;;;;;;;;;;27.20;94.40;;;;;;5097406;28;24074;-56
2022/06/07 03:28:51;;;;;;;;;;;27.10;94.40;;;;;;5073585;28;20101;-55
2022/06/07 03:31:17;;;;;;;;;;;27.10;94.40;;;;;;5090680;28;19908;-56
2022/06/07 03:33:44;;;;;;;;;;;27.10;94.40;;;;;;5084339;28;19900;-59
2022/06/07 03:36:13;;;;;;;;;;;27.10;94.50;;;;;;5094460;28;19916;-55
2022/06/07 03:38:40;;;;;;;;;;;27.10;94.40;;;;;;5102791;28;20092;-59
2022/06/07 03:41:06;;;;;;;;;;;27.10;94.40;;;;;;5094585;28;20189;-60
2022/06/07 03:43:32;;;;;;;;;;;27.10;94.40;;;;;;5091983;28;19904;-55
2022/06/07 03:46:09;;;;;;;;;;;27.10;94.30;;;;;;5100519;28;19908;-57
2022/06/07 03:48:35;;;;;;;;;;;27.10;94.30;;;;;;5102356;28;19922;-55
2022/06/07 03:51:02;;;;;;;;;;;27.10;94.30;;;;;;5104285;28;19908;-55
2022/06/07 03:53:28;;;;;;;;;;;27.10;94.30;;;;;;5104402;28;20096;-55
2022/06/07 03:55:54;;;;;;;;;;;27.10;94.50;;;;;;5102081;28;20222;-56
2022/06/07 03:58:20;;;;;;;;;;;27.10;94.30;;;;;;5104342;28;20120;-56
2022/06/07 04:00:46;;;;;;;;;;;27.10;94.10;;;;;;5104237;28;20092;-56
2022/06/07 04:03:13;;;;;;;;;;;27.10;94.10;;;;;;5103049;28;19900;-56
2022/06/07 04:05:40;;;;;;;;;;;27.10;94.10;;;;;;5103368;28;20119;-56
2022/06/07 04:08:12;;;;;;;;;;;27.10;94.10;;;;;;5104125;28;19949;-58
2022/06/07 04:10:45;;;;;;;;;;;27.00;94.00;;;;;;5104955;28;19938;-56
2022/06/07 04:13:12;;;;;;;;;;;27.00;94.00;;;;;;5104110;28;19900;-60
2022/06/07 04:15:38;;;;;;;;;;;27.00;94.10;;;;;;5104004;28;24124;-58
2022/06/07 04:18:05;;;;;;;;;;;27.00;94.00;;;;;;5103813;28;19935;-56
2022/06/07 04:20:31;;;;;;;;;;;27.00;94.00;;;;;;5103820;28;19908;-57
2022/06/07 04:22:57;;;;;;;;;;;27.00;94.00;;;;;;5104174;28;19923;-59
2022/06/07 04:25:23;;;;;;;;;;;27.00;93.90;;;;;;5104193;28;20172;-57
2022/06/07 04:27:49;;;;;;;;;;;27.00;93.90;;;;;;5104020;28;19900;-60
2022/06/07 04:30:16;;;;;;;;;;;26.90;93.70;;;;;;5103895;28;20066;-57
2022/06/07 04:32:46;;;;;;;;;;;26.90;93.70;;;;;;5103680;28;19904;-57
2022/06/07 04:35:17;;;;;;;;;;;26.90;93.60;;;;;;5103420;28;19958;-57
2022/06/07 04:37:44;;;;;;;;;;;27.00;93.60;;;;;;5103774;28;19900;-59
2022/06/07 04:40:10;;;;;;;;;;;26.90;93.50;;;;;;5104254;28;19908;-56
2022/06/07 04:42:37;;;;;;;;;;;26.90;93.50;;;;;;5104062;28;19900;-57
2022/06/07 04:45:03;;;;;;;;;;;26.90;93.50;;;;;;5104060;28;19915;-56
2022/06/07 04:47:29;;;;;;;;;;;26.90;93.50;;;;;;5103781;28;20211;-56
2022/06/07 04:49:56;;;;;;;;;;;26.90;93.50;;;;;;5103479;28;20073;-57
2022/06/07 04:52:22;;;;;;;;;;;26.90;93.40;;;;;;5103984;28;19900;-56
2022/06/07 04:54:48;;;;;;;;;;;26.90;93.40;;;;;;5103916;28;20200;-57
2022/06/07 04:57:14;;;;;;;;;;;26.90;93.30;;;;;;5103489;28;19904;-56
2022/06/07 04:59:40;;;;;;;;;;;26.90;93.30;;;;;;5103693;28;19959;-55
2022/06/07 05:02:06;;;;;;;;;;;26.90;93.30;;;;;;5103884;28;20177;-58
2022/06/07 05:04:32;;;;;;;;;;;26.90;93.10;;;;;;5103787;28;19906;-54
2022/06/07 05:06:58;;;;;;;;;;;26.80;93.10;;;;;;5101828;28;25097;-57
2022/06/07 05:09:25;;;;;;;;;;;26.90;93.10;;;;;;5093909;28;19964;-57
2022/06/07 05:11:52;;;;;;;;;;;26.80;93.00;;;;;;5096341;28;20006;-52
2022/06/07 05:14:18;;;;;;;;;;;26.80;92.90;;;;;;5096911;28;19966;-56
2022/06/07 05:16:45;;;;;;;;;;;26.80;92.80;;;;;;5105811;28;24120;-58
2022/06/07 05:19:12;;;;;;;;;;;26.80;92.90;;;;;;5107313;28;19900;-56
2022/06/07 05:21:39;;;;;;;;;;;26.80;92.90;;;;;;5107555;28;19908;-56
2022/06/07 05:24:05;;;;;;;;;;;26.80;92.80;;;;;;5107625;28;19927;-57
2022/06/07 05:26:35;;;;;;;;;;;26.80;92.70;;;;;;5107905;28;19908;-56
2022/06/07 05:29:02;;;;;;;;;;;26.80;92.80;;;;;;5107431;28;19907;-57
2022/06/07 05:31:28;;;;;;;;;;;26.80;92.80;;;;;;5107840;28;19908;-57
2022/06/07 05:33:55;;;;;;;;;;;26.70;92.70;;;;;;5105842;28;19945;-56
2022/06/07 05:36:21;;;;;;;;;;;26.80;92.80;;;;;;5105995;28;19923;-56
2022/06/07 05:38:48;;;;;;;;;;;26.80;92.80;;;;;;5107312;28;19923;-57
2022/06/07 05:41:25;;;;;;;;;;;26.80;92.80;;;;;;5107346;28;19945;-56
2022/06/07 05:43:52;;;;;;;;;;;26.70;92.70;;;;;;5107029;28;25090;-57
2022/06/07 05:46:18;;;;;;;;;;;26.80;92.80;;;;;;5105337;28;19931;-56
2022/06/07 05:48:44;;;;;;;;;;;26.70;92.70;;;;;;5106642;28;19971;-55
2022/06/07 05:51:10;;;;;;;;;;;26.80;92.80;;;;;;5107312;28;19912;-57
2022/06/07 05:53:37;;;;;;;;;;;26.70;92.80;;;;;;5106999;28;24064;-57
2022/06/07 05:56:05;;;;;;;;;;;26.80;92.80;;;;;;5106780;28;19915;-56
2022/06/07 05:58:31;;;;;;;;;;;26.70;92.80;;;;;;5106975;28;19912;-56
2022/06/07 06:00:57;;;;;;;;;;;26.70;92.80;;;;;;5106868;28;19967;-57
2022/06/07 06:03:24;;;;;;;;;;;26.70;92.80;;;;;;5106519;28;19904;-57
2022/06/07 06:05:50;;;;;;;;;;;26.70;92.90;;;;;;5106580;28;20194;-56
2022/06/07 06:11:07;;;;;;;;;;;26.80;92.90;;;;;;5106290;28;19922;-57
2022/06/07 06:13:35;;;;;;;;;;;26.70;92.90;;;;;;5106065;28;24082;-56
2022/06/07 06:16:02;;;;;;;;;;;26.70;92.90;;;;;;5106215;28;24067;-60
2022/06/07 06:18:28;;;;;;;;;;;26.70;92.90;;;;;;5106021;28;20188;-56
2022/06/07 06:20:55;;;;;;;;;;;26.70;92.90;;;;;;5106212;28;19904;-56
2022/06/07 06:23:21;;;;;;;;;;;26.70;92.90;;;;;;5106006;28;20147;-57
2022/06/07 06:25:48;;;;;;;;;;;26.70;92.90;;;;;;5106384;28;19907;-57
2022/06/07 06:28:14;;;;;;;;;;;26.70;92.90;;;;;;5105301;28;19910;-58
2022/06/07 06:30:47;;;;;;;;;;;26.70;92.90;;;;;;5106102;28;19904;-56
2022/06/07 06:33:14;;;;;;;;;;;26.70;92.90;;;;;;5106316;28;19912;-58
2022/06/07 06:35:51;;;;;;;;;;;26.70;92.90;;;;;;5106376;28;19947;-55
2022/06/07 06:38:18;;;;;;;;;;;26.70;93.00;;;;;;5105708;28;24078;-58
2022/06/07 06:40:45;;;;;;;;;;;26.70;93.10;;;;;;5106481;28;20199;-56
2022/06/07 06:43:12;;;;;;;;;;;26.70;93.20;;;;;;5106346;28;19900;-56
2022/06/07 06:45:39;;;;;;;;;;;26.70;93.30;;;;;;5106300;28;20172;-57
2022/06/07 06:48:06;;;;;;;;;;;26.70;93.40;;;;;;5105834;28;20069;-56
2022/06/07 06:50:32;;;;;;;;;;;26.60;93.50;;;;;;5106289;28;20198;-57
2022/06/07 06:52:59;;;;;;;;;;;26.60;93.80;;;;;;5106164;28;19900;-56
2022/06/07 06:55:25;;;;;;;;;;;26.60;94.00;;;;;;5106131;28;19908;-55
2022/06/07 06:57:51;;;;;;;;;;;26.60;94.10;;;;;;5106191;28;19900;-55
2022/06/07 07:00:17;;;;;;;;;;;26.60;94.20;;;;;;5105809;28;20273;-57
2022/06/07 07:02:44;;;;;;;;;;;26.60;94.30;;;;;;5106095;28;19908;-55
2022/06/07 07:05:12;;;;;;;;;;;26.60;94.40;;;;;;5105729;28;24123;-56
2022/06/07 07:07:38;;;;;;;;;;;26.60;94.50;;;;;;5105257;28;20127;-53
2022/06/07 07:10:05;;;;;;;;;;;26.60;94.50;;;;;;5103921;28;20082;-56
2022/06/07 07:12:32;;;;;;;;;;;26.60;94.50;;;;;;5105573;28;19900;-54
2022/06/07 07:14:58;;;;;;;;;;;26.60;94.60;;;;;;5105492;28;19932;-56
2022/06/07 07:17:25;;;;;;;;;;;26.50;94.70;;;;;;5105251;28;19908;-56
2022/06/07 07:19:52;;;;;;;;;;;26.50;94.80;;;;;;5105266;28;19899;-55
2022/06/07 07:22:18;;;;;;;;;;;26.50;94.80;;;;;;5105343;28;19900;-61
2022/06/07 07:24:44;;;;;;;;;;;26.50;94.70;;;;;;5105288;28;24101;-60
2022/06/07 07:27:10;;;;;;;;;;;26.50;94.80;;;;;;5105520;28;19927;-59
2022/06/07 07:29:37;;;;;;;;;;;26.50;94.70;;;;;;5105230;28;19907;-57
2022/06/07 07:32:04;;;;;;;;;;;26.50;94.60;;;;;;5105543;28;24072;-56
2022/06/07 07:34:30;;;;;;;;;;;26.50;94.60;;;;;;5104960;28;20180;-59
2022/06/07 07:36:57;;;;;;;;;;;26.50;94.60;;;;;;5104768;28;19982;-55
2022/06/07 07:39:24;;;;;;;;;;;26.50;94.90;;;;;;5104413;28;24057;-56
2022/06/07 07:41:51;;;;;;;;;;;26.50;94.70;;;;;;5103546;28;19914;-62
2022/06/07 07:44:20;;;;;;;;;;;26.40;94.70;;;;;;5104611;28;25083;-56
2022/06/07 07:46:47;;;;;;;;;;;26.40;94.70;;;;;;5105000;28;20164;-57
2022/06/07 07:49:15;;;;;;;;;;;26.40;94.80;;;;;;5104853;28;19908;-56
2022/06/07 07:51:44;;;;;;;;;;;26.40;94.90;;;;;;5104792;28;19904;-58
2022/06/07 07:54:11;;;;;;;;;;;26.40;94.90;;;;;;5104215;28;19911;-57
2022/06/07 07:56:38;;;;;;;;;;;26.40;94.90;;;;;;5104488;28;19908;-57
2022/06/07 07:59:05;;;;;;;;;;;26.40;94.90;;;;;;5105059;28;20129;-56
2022/06/07 08:01:31;;;;;;;;;;;26.40;94.90;;;;;;5105035;28;19934;-55
2022/06/07 08:03:59;;;;;;;;;;;26.40;94.90;;;;;;5104727;28;19904;-56
2022/06/07 08:06:26;;;;;;;;;;;26.40;94.90;;;;;;5104858;28;24153;-56
2022/06/07 08:08:53;;;;;;;;;;;26.40;94.90;;;;;;5104293;28;20096;-56
2022/06/07 08:11:21;;;;;;;;;;;26.40;94.90;;;;;;5104507;28;24057;-56
2022/06/07 08:13:47;;;;;;;;;;;26.40;95.00;;;;;;5104642;28;19904;-57
2022/06/07 08:16:13;;;;;;;;;;;26.40;95.10;;;;;;5104191;28;20155;-58
2022/06/07 08:18:39;;;;;;;;;;;26.40;95.10;;;;;;5104256;28;19904;-56
2022/06/07 08:21:07;;;;;;;;;;;26.30;95.00;;;;;;5104560;28;19903;-58
2022/06/07 08:23:34;;;;;;;;;;;26.30;95.00;;;;;;5103891;28;20185;-56
2022/06/07 08:26:01;;;;;;;;;;;26.30;95.00;;;;;;5104223;28;19907;-56
2022/06/07 08:28:27;;;;;;;;;;;26.30;95.00;;;;;;5104201;28;19971;-57
2022/06/07 08:30:53;;;;;;;;;;;26.30;95.00;;;;;;5104558;28;19904;-58
2022/06/07 08:38:56;;;;;;;;;;;26.30;94.90;;;;;;5104051;28;19953;-55
2022/06/07 08:41:24;;;;;;;;;;;26.30;95.00;;;;;;5104074;28;19900;-55
2022/06/07 08:43:51;;;;;;;;;;;26.30;94.90;;;;;;5104316;28;19953;-55
2022/06/07 08:46:18;;;;;;;;;;;26.30;94.90;;;;;;5104481;28;19907;-55
2022/06/07 08:48:45;;;;;;;;;;;26.30;94.90;;;;;;5103686;28;19908;-56
2022/06/07 08:51:34;;;;;;;;;;;26.30;94.90;;;;;;5104843;28;19916;-59
2022/06/07 08:54:04;;;;;;;;;;;26.30;94.90;;;;;;5107613;28;20106;-56
2022/06/07 08:56:32;;;;;;;;;;;26.30;94.90;;;;;;5108056;28;19903;-57
2022/06/07 08:59:00;;;;;;;;;;;26.30;95.00;;;;;;5108150;28;20149;-57
2022/06/07 09:01:29;;;;;;;;;;;26.30;94.90;;;;;;5108063;28;24052;-55
2022/06/07 09:04:10;;;;;;;;;;;26.30;94.90;;;;;;5107716;28;19962;-58
2022/06/07 09:06:39;;;;;;;;;;;26.20;94.90;;;;;;5108032;28;19959;-56
2022/06/07 09:09:06;;;;;;;;;;;26.20;95.00;;;;;;5107417;28;19908;-54
2022/06/07 09:12:10;;;;;;;;;;;26.20;94.90;;;;;;5107798;28;20381;-60
2022/06/07 09:14:43;;;;;;;;;;;26.20;95.00;;;;;;5005909;28;20269;-55
2022/06/07 09:17:32;;;;;;;;;;;26.20;95.00;;;;;;5088476;28;19919;-55
2022/06/07 09:19:58;;;;;;;;;;;26.20;95.00;;;;;;5087593;28;19900;-55
2022/06/07 09:22:29;;;;;;;;;;;26.20;95.00;;;;;;5107292;28;19908;-57
2022/06/07 09:25:07;;;;;;;;;;;26.20;95.00;;;;;;5107089;28;20040;-56
2022/06/07 09:27:34;;;;;;;;;;;26.20;95.00;;;;;;5107499;28;19908;-56
2022/06/07 09:30:05;;;;;;;;;;;26.20;95.00;;;;;;5104255;28;19907;-55
2022/06/07 09:32:33;;;;;;;;;;;26.20;95.00;;;;;;5102543;28;19915;-55
2022/06/07 09:35:00;;;;;;;;;;;26.20;95.00;;;;;;5104183;28;19950;-54
2022/06/07 09:37:29;;;;;;;;;;;26.20;95.00;;;;;;5101476;28;24106;-54
2022/06/07 09:39:59;;;;;;;;;;;26.20;95.10;;;;;;5105004;28;20069;-55
2022/06/07 09:42:30;;;;;;;;;;;26.20;95.20;;;;;;5101658;28;19908;-57
2022/06/07 09:44:56;;;;;;;;;;;26.20;95.10;;;;;;5106797;28;20226;-56
2022/06/07 09:47:25;;;;;;;;;;;26.20;95.10;;;;;;5106766;28;19946;-56
2022/06/07 09:49:57;;;;;;;;;;;26.20;95.20;;;;;;5106555;28;19900;-56
2022/06/07 09:52:26;;;;;;;;;;;26.20;95.30;;;;;;5106850;28;20013;-56
2022/06/07 09:54:58;;;;;;;;;;;26.10;95.30;;;;;;5104948;28;24092;-58
2022/06/07 09:57:25;;;;;;;;;;;26.10;95.30;;;;;;5101009;28;19927;-55
2022/06/07 10:00:09;;;;;;;;;;;26.20;95.40;;;;;;5106810;28;19945;-55
2022/06/07 10:02:56;;;;;;;;;;;26.10;95.30;;;;;;5106389;28;20332;-55
2022/06/07 10:05:26;;;;;;;;;;;26.10;95.40;;;;;;5106223;28;19963;-59
2022/06/07 10:08:01;;;;;;;;;;;26.10;95.50;;;;;;5106403;28;19915;-56
2022/06/07 10:10:33;;;;;;;;;;;26.10;95.50;;;;;;5106665;28;19969;-55
2022/06/07 10:13:03;;;;;;;;;;;26.10;95.50;;;;;;5106308;28;19912;-55
2022/06/07 10:15:41;;;;;;;;;;;26.10;95.50;;;;;;5106408;28;19900;-54
2022/06/07 10:18:30;;;;;;;;;;;26.20;95.60;;;;;;5106047;28;19976;-57
2022/06/07 10:20:59;;;;;;;;;;;26.10;95.60;;;;;;5084279;28;20232;-55
2022/06/07 10:23:36;;;;;;;;;;;26.10;95.60;;;;;;5104098;28;20123;-55
2022/06/07 10:26:10;;;;;;;;;;;26.10;95.50;;;;;;5106219;28;19907;-59
2022/06/07 10:28:47;;;;;;;;;;;26.10;95.60;;;;;;5106299;28;19908;-57
2022/06/07 10:31:36;;;;;;;;;;;26.10;95.40;;;;;;5106497;28;19931;-57
2022/06/07 10:34:05;;;;;;;;;;;26.10;95.40;;;;;;5105530;28;19919;-55
2022/06/07 10:37:06;;;;;;;;;;;26.10;95.40;;;;;;5105466;28;20246;-57
2022/06/07 10:39:35;;;;;;;;;;;26.10;95.40;;;;;;5004804;28;19985;-56
2022/06/07 10:42:11;;;;;;;;;;;26.10;95.40;;;;;;5082202;28;20096;-56
2022/06/07 10:44:48;;;;;;;;;;;26.00;95.30;;;;;;5105763;28;20130;-56
2022/06/07 10:47:20;;;;;;;;;;;26.10;95.30;;;;;;5105815;28;19908;-57
2022/06/07 10:49:50;;;;;;;;;;;26.00;95.20;;;;;;5105905;28;19967;-56
2022/06/07 10:52:24;;;;;;;;;;;26.00;95.20;;;;;;5105716;28;24087;-56
2022/06/07 10:55:09;;;;;;;;;;;26.00;95.20;;;;;;5105277;28;19900;-58
2022/06/07 10:57:39;;;;;;;;;;;26.00;95.20;;;;;;5105400;28;19912;-60
2022/06/07 11:00:31;;;;;;;;;;;26.00;95.20;;;;;;5105655;28;20053;-55
2022/06/07 11:03:16;;;;;;;;;;;26.10;95.30;;;;;;5100554;28;20186;-56
2022/06/07 11:11:13;;;;;;;;;;;26.10;95.00;;;;;;5105632;28;19963;-57
2022/06/07 11:13:46;;;;;;;;;;;26.10;95.10;;;;;;5104858;28;19915;-57
2022/06/07 11:16:15;;;;;;;;;;;26.10;95.20;;;;;;5105851;28;20100;-56
2022/06/07 11:18:42;;;;;;;;;;;26.10;95.20;;;;;;5105477;28;19915;-57
2022/06/07 11:21:10;;;;;;;;;;;26.10;95.30;;;;;;5105220;28;19900;-56
2022/06/07 11:23:37;;;;;;;;;;;26.10;95.30;;;;;;5104750;28;19946;-58
2022/06/07 11:26:03;;;;;;;;;;;26.10;95.40;;;;;;5105686;28;19907;-57
2022/06/07 11:28:49;;;;;;;;;;;26.10;95.40;;;;;;5104939;28;20250;-59
2022/06/07 11:31:15;;;;;;;;;;;26.10;95.40;;;;;;5105262;28;19963;-62
2022/06/07 11:33:47;;;;;;;;;;;26.10;95.40;;;;;;5105241;28;20212;-55
2022/06/07 11:36:13;;;;;;;;;;;26.10;95.50;;;;;;5105199;28;20299;-56
2022/06/07 11:38:58;;;;;;;;;;;26.10;95.50;;;;;;5105687;28;19975;-58
2022/06/07 11:41:36;;;;;;;;;;;26.10;95.50;;;;;;5096160;28;19904;-58
2022/06/07 11:44:11;;;;;;;;;;;26.10;95.50;;;;;;5104533;28;19904;-58
2022/06/07 11:46:40;;;;;;;;;;;26.20;95.50;;;;;;5104852;28;19908;-56
2022/06/07 11:49:24;;;;;;;;;;;26.20;95.50;;;;;;5104512;28;19908;-57
2022/06/07 11:52:10;;;;;;;;;;;26.20;95.50;;;;;;5104730;28;24057;-55
2022/06/07 11:54:38;;;;;;;;;;;26.20;95.60;;;;;;5104739;28;19911;-58
2022/06/07 11:57:24;;;;;;;;;;;26.20;95.80;;;;;;5105309;28;20037;-53
2022/06/07 11:59:52;;;;;;;;;;;26.30;95.50;;;;;;5103018;28;19904;-60
2022/06/07 12:02:35;;;;;;;;;;;26.30;95.40;;;;;;5096439;28;19908;-56
2022/06/07 12:05:16;;;;;;;;;;;26.40;95.40;;;;;;5102409;28;19911;-55
2022/06/07 12:07:46;;;;;;;;;;;26.50;95.40;;;;;;5102866;28;19911;-56
2022/06/07 12:10:18;;;;;;;;;;;26.60;95.20;;;;;;5103086;28;19970;-54
2022/06/07 12:12:55;;;;;;;;;;;26.60;95.00;;;;;;5101939;28;20227;-54
2022/06/07 12:15:24;;;;;;;;;;;26.70;94.80;;;;;;5088251;28;20022;-56
2022/06/07 12:17:56;;;;;;;;;;;26.80;94.80;;;;;;5101386;28;19914;-56
2022/06/07 12:20:24;;;;;;;;;;;26.90;94.70;;;;;;5083820;28;19976;-56
2022/06/07 12:22:50;;;;;;;;;;;26.90;94.60;;;;;;5084585;28;19927;-56
2022/06/07 12:25:18;;;;;;;;;;;27.00;94.50;;;;;;5102106;28;25092;-56
2022/06/07 12:27:46;;;;;;;;;;;27.00;94.50;;;;;;5103647;28;19908;-55
2022/06/07 12:30:19;;;;;;;;;;;27.10;94.40;;;;;;5104134;28;19908;-57
2022/06/07 12:32:45;;;;;;;;;;;27.10;94.30;;;;;;5104781;28;24074;-56
2022/06/07 12:35:14;;;;;;;;;;;27.20;94.30;;;;;;5104281;28;20173;-56
2022/06/07 12:37:44;;;;;;;;;;;27.30;94.30;;;;;;5104654;28;19912;-56
2022/06/07 12:40:22;;;;;;;;;;;27.30;94.30;;;;;;5100299;28;19910;-59
2022/06/07 12:42:49;;;;;;;;;;;27.30;94.20;;;;;;5101869;28;19947;-55
2022/06/07 12:45:33;;;;;;;;;;;27.40;94.20;;;;;;5103906;28;19904;-57
2022/06/07 12:48:19;;;;;;;;;;;27.40;94.10;;;;;;5103584;28;19904;-55
2022/06/07 12:50:46;;;;;;;;;;;27.50;93.80;;;;;;5103133;28;19998;-56
2022/06/07 12:53:30;;;;;;;;;;;27.50;93.70;;;;;;5103342;28;24089;-55
2022/06/07 12:56:04;;;;;;;;;;;27.60;93.40;;;;;;5103986;28;24077;-60
2022/06/07 12:58:34;;;;;;;;;;;27.70;93.50;;;;;;5103884;28;19904;-57
2022/06/07 13:01:01;;;;;;;;;;;27.70;93.40;;;;;;5104292;28;20202;-56
2022/06/07 13:03:36;;;;;;;;;;;27.70;93.20;;;;;;5103704;28;19904;-57
2022/06/07 13:06:08;;;;;;;;;;;27.80;93.20;;;;;;5103971;28;20077;-56
2022/06/07 13:08:35;;;;;;;;;;;27.80;93.10;;;;;;5104091;28;19904;-58
2022/06/07 13:11:03;;;;;;;;;;;27.80;93.00;;;;;;5103926;28;19904;-55
2022/06/07 13:13:34;;;;;;;;;;;27.80;92.90;;;;;;5103844;28;19942;-55
2022/06/07 13:16:13;;;;;;;;;;;27.80;92.90;;;;;;5104290;28;19912;-52
2022/06/07 13:18:41;;;;;;;;;;;27.80;92.80;;;;;;5103803;28;19967;-57
2022/06/07 13:21:26;;;;;;;;;;;27.80;92.80;;;;;;5103956;28;19911;-57
2022/06/07 13:23:54;;;;;;;;;;;27.80;92.80;;;;;;5103619;28;19942;-57
2022/06/07 13:26:27;;;;;;;;;;;27.80;92.70;;;;;;5100634;28;19970;-55
2022/06/07 13:29:00;;;;;;;;;;;27.80;92.90;;;;;;5096153;28;19910;-56
2022/06/07 13:31:43;;;;;;;;;;;27.90;92.90;;;;;;5103518;28;19958;-56
2022/06/07 13:34:21;;;;;;;;;;;27.90;92.90;;;;;;5101346;28;19904;-57
2022/06/07 13:37:08;;;;;;;;;;;28.00;92.80;;;;;;5103151;28;19975;-56
2022/06/07 13:39:36;;;;;;;;;;;27.90;92.80;;;;;;5091096;28;19911;-58
2022/06/07 13:42:12;;;;;;;;;;;28.00;92.80;;;;;;5107984;28;19911;-57
2022/06/07 13:44:53;;;;;;;;;;;28.00;92.50;;;;;;5107229;28;19908;-58
2022/06/07 13:47:35;;;;;;;;;;;28.00;92.50;;;;;;5107631;28;19908;-59
2022/06/07 13:53:24;;;;;;;;;;;28.10;92.30;;;;;;5066889;28;20211;-56
2022/06/07 13:55:55;;;;;;;;;;;28.20;92.50;;;;;;5107539;28;19982;-55
2022/06/07 13:58:23;;;;;;;;;;;28.20;92.40;;;;;;5107178;28;19926;-57
2022/06/07 14:00:50;;;;;;;;;;;28.20;92.40;;;;;;5089026;28;19970;-55
2022/06/07 14:03:28;;;;;;;;;;;28.30;92.30;;;;;;5105218;28;24088;-58
2022/06/07 14:05:54;;;;;;;;;;;28.20;92.00;;;;;;5107192;28;19904;-55
2022/06/07 14:08:21;;;;;;;;;;;28.30;92.00;;;;;;5107101;28;19910;-56
2022/06/07 14:10:47;;;;;;;;;;;28.30;92.00;;;;;;5106563;28;19967;-55
2022/06/07 14:13:14;;;;;;;;;;;28.30;92.10;;;;;;5106744;28;24099;-55
2022/06/07 14:15:41;;;;;;;;;;;28.40;92.10;;;;;;5106905;28;19910;-55
2022/06/07 14:18:10;;;;;;;;;;;28.40;92.10;;;;;;5106754;28;19904;-60
2022/06/07 14:20:38;;;;;;;;;;;28.40;91.90;;;;;;5106712;28;20040;-55
2022/06/07 14:23:05;;;;;;;;;;;28.40;91.80;;;;;;5106242;28;24069;-56
2022/06/07 14:25:32;;;;;;;;;;;28.40;91.80;;;;;;5106341;28;20176;-57
2022/06/07 14:27:59;;;;;;;;;;;28.40;91.90;;;;;;5105913;28;24093;-56
2022/06/07 14:30:25;;;;;;;;;;;28.40;91.80;;;;;;5106149;28;24100;-55
2022/06/07 14:32:55;;;;;;;;;;;28.40;92.10;;;;;;5105564;28;19904;-56
2022/06/07 14:35:23;;;;;;;;;;;28.40;91.90;;;;;;5105998;28;19911;-56
2022/06/07 14:37:51;;;;;;;;;;;28.40;91.90;;;;;;5106320;28;19953;-56
2022/06/07 14:40:19;;;;;;;;;;;28.40;91.80;;;;;;5105915;28;20044;-55
2022/06/07 14:42:45;;;;;;;;;;;28.50;91.20;;;;;;5106637;28;19904;-58
2022/06/07 14:45:17;;;;;;;;;;;28.50;91.30;;;;;;5105737;28;19927;-58
2022/06/07 14:47:45;;;;;;;;;;;28.50;91.20;;;;;;5105730;28;19908;-55
2022/06/07 14:50:17;;;;;;;;;;;28.50;90.80;;;;;;5104818;28;19904;-53
2022/06/07 14:52:45;;;;;;;;;;;28.50;90.70;;;;;;5106393;28;19908;-56
2022/06/07 14:55:13;;;;;;;;;;;28.60;90.80;;;;;;5104728;28;19904;-58